Accueil
METAR-TAF:

METAR-TAF

Aéroports :

Aéroport de Lannion-Côte de Granit

Lannion, France

latitude: 48-45N, longitude: 003-28W, altitude: 89 m

Observation

Le bulletin a été fait il y a 29 minutes, à 07:00 UTC
Vent 4 kt de est/nord-est, variant entre nord-est et est/sud-est
Température 4°C
Humidité 93%
Pression 1021 hPa
Visibilité: 6000 m
Nuages épars à une hauteur de 1000 ft
Nuages fragmentés à une hauteur de 1900 ft
Ciel couvert à une hauteur de 15000 ft

METAR: LFRO 240700Z AUTO 07004KT 040V110 6000 SCT010 BKN019 OVC150 04/03 Q1021

Heure: 08:29 (07:29 UTC)


TAF: absent

Observations et prévisions météorologiques de plus de 4000 aéroports (messages METAR et TAF).

Les stations disponibles sont représentées par des disques jaunes et rouges sur la carte.

Passer la souris dessus pour voir le nom de la station.

Cliquer dessus pour voir les observations et prévisions météorologiques.

Pour changer de carte: cliquez sur les boutons verts avec une croix noire pour zoomer, sur le bouton vert avec un tiret pour effectuer un zoom arrière, ou sur les flèches vertes pour les cartes adjacentes.


METAR-TAF: